Main page
METAR-TAF:

METAR-TAF

Airports :

Madrid, Spain

Adolfo Suárez Madrid–Barajas Airport

latitude: 40-27N, longitude: 003-33W, elevation: 609 m

Current weather observation

The report was made 27 minutes ago, at 07:00 UTC
Wind 3 kt from the North/Northwest, varying between West/Northwest and East
Temperature 13°C
Humidity 82%
Pressure 1019 hPa
Visibility 10 km or more
no clouds below 1500 m and no cumulonimbus

METAR: LEMD 230700Z 34003KT 290V080 CAVOK 13/10 Q1019 NOSIG

Time: 09:27 (07:27 UTC)

Forecast

The report was made 2 hours and 27 minutes ago, at 05:00 UTC
Forecast valid from 23 at 06 UTC to 24 at 12 UTC
Wind 7 kt from the Northeast
Visibility 10 km or more
no clouds below 1500 m and no cumulonimbus
Probability 40% :
Temporary
from 23 at 14 UTC to 23 at 18 UTC
Few clouds at a height of 5000 ft, Towering cumulus.

TAF: LEMD 230500Z 2306/2412 05007KT CAVOK TX25/2316Z TN11/2406Z PROB40 TEMPO 2314/2318 FEW050TCU

Weather observations and forecasts of more than 4000 airports (METAR and TAF reports).

The available stations are represented by yellow and red dots on the map.

Hover mouse over dot to see the name of the station.

Then click to see weather observations and forecasts.

To change the map : click on the green buttons with a black cross to zoom in, on the green button with a dash to zoom out, or on the green arrows for adjacent maps.


METAR-TAF: